This is the latest recevied weather packets stored in our database for station/object WP3OF-2. If no packets are shown the sender has not sent any weather packets the latest 10 day(s).
| Time | Temp. | Humidity | Pressure | Rain* | Wind** | Luminosity | Snow |
|---|---|---|---|---|---|---|---|
| 1777747490 | 23.33° C | 91% | 1024.9 hPa | 0 mm | - | 886 W/m² | - |
| 1777747187 | 23.89° C | 90% | 1024.9 hPa | 0 mm | - | 904 W/m² | - |
| 1777746883 | 23.89° C | 91% | 1025.2 hPa | 0 mm | - | 791 W/m² | - |
| 1777746578 | 23.33° C | 92% | 1025.2 hPa | 0 mm | - | 815 W/m² | - |
| 1777746274 | 22.78° C | 93% | 1025.2 hPa | 0 mm | - | 815 W/m² | - |
| 1777745970 | 23.33° C | 92% | 1025.2 hPa | 0 mm | - | 963 W/m² | - |
| 1777745668 | 22.78° C | 94% | 1025.2 hPa | 0 mm | - | 235 W/m² | - |
| 1777745366 | 23.33° C | 92% | 1025.2 hPa | 0 mm | - | 288 W/m² | - |
| 1777745064 | 23.89° C | 89% | 1025.2 hPa | 0 mm | - | 446 W/m² | - |
| 1777744759 | 23.89° C | 89% | 1025.6 hPa | 0 mm | - | 587 W/m² | - |
| 1777744454 | 23.89° C | 90% | 1025.6 hPa | 0 mm | - | 628 W/m² | - |
| 1777744151 | 24.44° C | 89% | 1025.6 hPa | 0 mm | - | 506 W/m² | - |
| 1777743848 | 24.44° C | 87% | 1025.6 hPa | 0 mm | - | 704 W/m² | - |
| 1777743544 | 24.44° C | 87% | 1025.6 hPa | 0 mm | - | 906 W/m² | - |
| 1777743241 | 24.44° C | 87% | 1025.6 hPa | 0 mm | - | 310 W/m² | - |
| 1777742940 | 23.89° C | 87% | 1026 hPa | 0 mm | - | 1041 W/m² | - |
| 1777742636 | 23.89° C | 87% | 1026 hPa | 0 mm | - | 503 W/m² | - |
| 1777742332 | 23.89° C | 88% | 1026 hPa | 0 mm | - | 927 W/m² | - |
| 1777742028 | 23.89° C | 87% | 1026 hPa | 0 mm | - | 836 W/m² | - |
| 1777741726 | 23.33° C | 88% | 1026 hPa | 0 mm | - | 882 W/m² | - |
| 1777741422 | 24.44° C | 86% | 1026 hPa | 0 mm | - | 304 W/m² | - |
| 1777741118 | 23.89° C | 85% | 1026.3 hPa | 0 mm | - | 269 W/m² | - |
| 1777740815 | 23.89° C | 85% | 1026 hPa | 0 mm | - | 337 W/m² | - |
| 1777740512 | 23.89° C | 89% | 1026.3 hPa | 0 mm | - | 984 W/m² | - |
| 1777740210 | 23.89° C | 86% | 1026.3 hPa | 0 mm | - | 278 W/m² | - |
* Rain latest hour (hover to see other rain measurements)
** Current wind speed in m/s (hover to see current wind gust speed)